sensor_id;sensor_type;location;lat;lon;timestamp;P1;durP1;ratioP1;P2;durP2;ratioP2
6834;SDS011;3455;42.150;24.734;2022-12-18T00:02:13;68.33;;;43.37;;
6834;SDS011;3455;42.150;24.734;2022-12-18T00:04:40;72.70;;;45.27;;
6834;SDS011;3455;42.150;24.734;2022-12-18T00:07:07;67.13;;;43.30;;
6834;SDS011;3455;42.150;24.734;2022-12-18T00:09:34;65.93;;;43.83;;
6834;SDS011;3455;42.150;24.734;2022-12-18T00:12:02;69.93;;;43.37;;
6834;SDS011;3455;42.150;24.734;2022-12-18T00:14:30;67.73;;;42.60;;
6834;SDS011;3455;42.150;24.734;2022-12-18T00:16:57;64.90;;;40.93;;
6834;SDS011;3455;42.150;24.734;2022-12-18T00:19:25;66.10;;;42.47;;
6834;SDS011;3455;42.150;24.734;2022-12-18T00:21:52;66.80;;;42.60;;
6834;SDS011;3455;42.150;24.734;2022-12-18T00:24:19;63.20;;;40.77;;
6834;SDS011;3455;42.150;24.734;2022-12-18T00:26:46;62.37;;;40.83;;
6834;SDS011;3455;42.150;24.734;2022-12-18T00:29:14;67.23;;;41.30;;
6834;SDS011;3455;42.150;24.734;2022-12-18T00:31:41;61.27;;;39.63;;
6834;SDS011;3455;42.150;24.734;2022-12-18T00:34:09;57.90;;;39.37;;
6834;SDS011;3455;42.150;24.734;2022-12-18T00:36:37;63.13;;;40.33;;
6834;SDS011;3455;42.150;24.734;2022-12-18T00:39:05;65.83;;;40.90;;
6834;SDS011;3455;42.150;24.734;2022-12-18T00:41:32;58.03;;;40.17;;
6834;SDS011;3455;42.150;24.734;2022-12-18T00:44:18;58.20;;;40.40;;
6834;SDS011;3455;42.150;24.734;2022-12-18T00:46:46;59.00;;;38.47;;
6834;SDS011;3455;42.150;24.734;2022-12-18T00:49:13;64.20;;;39.23;;
6834;SDS011;3455;42.150;24.734;2022-12-18T00:51:41;62.63;;;38.77;;
6834;SDS011;3455;42.150;24.734;2022-12-18T00:54:07;56.50;;;39.00;;
6834;SDS011;3455;42.150;24.734;2022-12-18T00:56:35;58.13;;;37.73;;
6834;SDS011;3455;42.150;24.734;2022-12-18T00:59:02;59.10;;;39.03;;
6834;SDS011;3455;42.150;24.734;2022-12-18T01:01:31;62.87;;;38.43;;
6834;SDS011;3455;42.150;24.734;2022-12-18T01:03:59;54.83;;;38.03;;
6834;SDS011;3455;42.150;24.734;2022-12-18T01:06:26;51.87;;;37.23;;
6834;SDS011;3455;42.150;24.734;2022-12-18T01:08:53;55.97;;;36.30;;
6834;SDS011;3455;42.150;24.734;2022-12-18T01:11:20;51.30;;;36.27;;
6834;SDS011;3455;42.150;24.734;2022-12-18T01:13:48;52.80;;;38.20;;
6834;SDS011;3455;42.150;24.734;2022-12-18T01:16:15;56.50;;;37.97;;
6834;SDS011;3455;42.150;24.734;2022-12-18T01:18:44;57.97;;;39.23;;
6834;SDS011;3455;42.150;24.734;2022-12-18T01:21:12;54.37;;;37.60;;
6834;SDS011;3455;42.150;24.734;2022-12-18T01:23:41;52.80;;;38.03;;
6834;SDS011;3455;42.150;24.734;2022-12-18T01:26:08;55.23;;;36.63;;
6834;SDS011;3455;42.150;24.734;2022-12-18T01:28:37;52.10;;;36.70;;
6834;SDS011;3455;42.150;24.734;2022-12-18T01:31:11;54.80;;;36.23;;
6834;SDS011;3455;42.150;24.734;2022-12-18T01:33:39;50.13;;;35.43;;
6834;SDS011;3455;42.150;24.734;2022-12-18T01:36:07;51.20;;;36.47;;
6834;SDS011;3455;42.150;24.734;2022-12-18T01:38:40;50.60;;;35.67;;
6834;SDS011;3455;42.150;24.734;2022-12-18T01:41:07;47.13;;;33.33;;
6834;SDS011;3455;42.150;24.734;2022-12-18T01:43:48;49.03;;;35.57;;
6834;SDS011;3455;42.150;24.734;2022-12-18T01:46:18;51.63;;;35.23;;
6834;SDS011;3455;42.150;24.734;2022-12-18T01:48:46;51.00;;;35.33;;
6834;SDS011;3455;42.150;24.734;2022-12-18T01:51:17;54.30;;;35.23;;
6834;SDS011;3455;42.150;24.734;2022-12-18T01:53:44;54.13;;;36.40;;
6834;SDS011;3455;42.150;24.734;2022-12-18T01:56:13;49.10;;;35.27;;
6834;SDS011;3455;42.150;24.734;2022-12-18T01:58:45;52.60;;;36.40;;
6834;SDS011;3455;42.150;24.734;2022-12-18T02:01:20;53.70;;;36.40;;
6834;SDS011;3455;42.150;24.734;2022-12-18T02:03:48;53.20;;;36.43;;
6834;SDS011;3455;42.150;24.734;2022-12-18T02:06:18;50.53;;;33.60;;
6834;SDS011;3455;42.150;24.734;2022-12-18T02:08:52;44.00;;;32.63;;
6834;SDS011;3455;42.150;24.734;2022-12-18T02:11:30;46.80;;;33.37;;
6834;SDS011;3455;42.150;24.734;2022-12-18T02:14:07;46.30;;;31.30;;
6834;SDS011;3455;42.150;24.734;2022-12-18T02:16:43;45.67;;;31.00;;
6834;SDS011;3455;42.150;24.734;2022-12-18T02:19:26;49.73;;;31.63;;
6834;SDS011;3455;42.150;24.734;2022-12-18T02:22:10;45.23;;;30.87;;
6834;SDS011;3455;42.150;24.734;2022-12-18T02:24:52;42.17;;;29.73;;
6834;SDS011;3455;42.150;24.734;2022-12-18T02:27:27;43.13;;;30.33;;
6834;SDS011;3455;42.150;24.734;2022-12-18T02:29:58;45.67;;;30.20;;
6834;SDS011;3455;42.150;24.734;2022-12-18T02:32:28;36.50;;;27.10;;
6834;SDS011;3455;42.150;24.734;2022-12-18T02:34:58;39.73;;;26.97;;
6834;SDS011;3455;42.150;24.734;2022-12-18T02:37:27;36.83;;;27.40;;
6834;SDS011;3455;42.150;24.734;2022-12-18T02:39:56;35.23;;;27.60;;
6834;SDS011;3455;42.150;24.734;2022-12-18T02:42:26;39.47;;;26.17;;
6834;SDS011;3455;42.150;24.734;2022-12-18T02:44:54;37.43;;;26.07;;
6834;SDS011;3455;42.150;24.734;2022-12-18T02:47:21;34.53;;;26.47;;
6834;SDS011;3455;42.150;24.734;2022-12-18T02:49:53;40.43;;;26.33;;
6834;SDS011;3455;42.150;24.734;2022-12-18T02:52:28;34.27;;;23.67;;
6834;SDS011;3455;42.150;24.734;2022-12-18T02:55:06;30.57;;;23.80;;
6834;SDS011;3455;42.150;24.734;2022-12-18T02:57:44;32.07;;;24.60;;
6834;SDS011;3455;42.150;24.734;2022-12-18T03:00:16;32.80;;;23.80;;
6834;SDS011;3455;42.150;24.734;2022-12-18T03:02:45;34.57;;;24.83;;
6834;SDS011;3455;42.150;24.734;2022-12-18T03:05:16;29.53;;;23.07;;
6834;SDS011;3455;42.150;24.734;2022-12-18T03:07:48;39.93;;;22.53;;
6834;SDS011;3455;42.150;24.734;2022-12-18T03:10:23;28.20;;;22.83;;
6834;SDS011;3455;42.150;24.734;2022-12-18T03:12:56;29.83;;;22.03;;
6834;SDS011;3455;42.150;24.734;2022-12-18T03:15:29;33.87;;;24.53;;
6834;SDS011;3455;42.150;24.734;2022-12-18T03:18:02;32.00;;;22.90;;
6834;SDS011;3455;42.150;24.734;2022-12-18T03:20:34;33.30;;;22.83;;
6834;SDS011;3455;42.150;24.734;2022-12-18T03:23:04;32.27;;;23.73;;
6834;SDS011;3455;42.150;24.734;2022-12-18T03:25:34;34.57;;;23.90;;
6834;SDS011;3455;42.150;24.734;2022-12-18T03:28:06;28.67;;;23.20;;
6834;SDS011;3455;42.150;24.734;2022-12-18T03:30:37;33.10;;;23.80;;
6834;SDS011;3455;42.150;24.734;2022-12-18T03:33:07;35.90;;;23.20;;
6834;SDS011;3455;42.150;24.734;2022-12-18T03:35:38;31.83;;;22.53;;
6834;SDS011;3455;42.150;24.734;2022-12-18T03:38:07;28.13;;;20.97;;
6834;SDS011;3455;42.150;24.734;2022-12-18T03:40:37;26.93;;;20.73;;
6834;SDS011;3455;42.150;24.734;2022-12-18T03:43:15;25.20;;;19.50;;
6834;SDS011;3455;42.150;24.734;2022-12-18T03:45:48;27.73;;;19.27;;
6834;SDS011;3455;42.150;24.734;2022-12-18T03:48:20;25.73;;;19.83;;
6834;SDS011;3455;42.150;24.734;2022-12-18T03:50:56;24.60;;;18.47;;
6834;SDS011;3455;42.150;24.734;2022-12-18T03:53:25;20.87;;;17.60;;
6834;SDS011;3455;42.150;24.734;2022-12-18T03:56:01;23.93;;;17.90;;
6834;SDS011;3455;42.150;24.734;2022-12-18T03:58:31;22.70;;;17.50;;
6834;SDS011;3455;42.150;24.734;2022-12-18T04:01:01;23.73;;;17.53;;
6834;SDS011;3455;42.150;24.734;2022-12-18T04:03:31;19.07;;;16.83;;
6834;SDS011;3455;42.150;24.734;2022-12-18T04:06:00;19.63;;;16.47;;
6834;SDS011;3455;42.150;24.734;2022-12-18T04:08:29;22.23;;;15.83;;
6834;SDS011;3455;42.150;24.734;2022-12-18T04:10:56;17.60;;;15.47;;
6834;SDS011;3455;42.150;24.734;2022-12-18T04:13:23;16.93;;;14.83;;
6834;SDS011;3455;42.150;24.734;2022-12-18T04:15:51;16.70;;;15.00;;
6834;SDS011;3455;42.150;24.734;2022-12-18T04:18:18;18.63;;;14.80;;
6834;SDS011;3455;42.150;24.734;2022-12-18T04:20:45;20.17;;;15.57;;
6834;SDS011;3455;42.150;24.734;2022-12-18T04:23:12;18.90;;;15.07;;
6834;SDS011;3455;42.150;24.734;2022-12-18T04:25:38;18.93;;;15.37;;
6834;SDS011;3455;42.150;24.734;2022-12-18T04:28:05;16.37;;;14.67;;
6834;SDS011;3455;42.150;24.734;2022-12-18T04:30:32;14.73;;;13.30;;
6834;SDS011;3455;42.150;24.734;2022-12-18T04:33:00;14.90;;;13.40;;
6834;SDS011;3455;42.150;24.734;2022-12-18T04:35:27;14.57;;;13.20;;
6834;SDS011;3455;42.150;24.734;2022-12-18T04:37:54;25.43;;;17.37;;
6834;SDS011;3455;42.150;24.734;2022-12-18T04:40:20;13.70;;;11.50;;
6834;SDS011;3455;42.150;24.734;2022-12-18T04:42:47;12.03;;;10.67;;
6834;SDS011;3455;42.150;24.734;2022-12-18T04:45:14;10.33;;;9.33;;
6834;SDS011;3455;42.150;24.734;2022-12-18T04:47:41;10.37;;;9.37;;
6834;SDS011;3455;42.150;24.734;2022-12-18T04:50:09;9.50;;;8.80;;
6834;SDS011;3455;42.150;24.734;2022-12-18T04:52:36;8.87;;;8.17;;
6834;SDS011;3455;42.150;24.734;2022-12-18T04:55:03;9.17;;;8.47;;
6834;SDS011;3455;42.150;24.734;2022-12-18T04:57:30;8.27;;;6.93;;
6834;SDS011;3455;42.150;24.734;2022-12-18T04:59:56;7.30;;;6.80;;
6834;SDS011;3455;42.150;24.734;2022-12-18T05:02:23;6.77;;;6.27;;
6834;SDS011;3455;42.150;24.734;2022-12-18T05:04:50;6.10;;;5.57;;
6834;SDS011;3455;42.150;24.734;2022-12-18T05:07:18;6.17;;;5.67;;
6834;SDS011;3455;42.150;24.734;2022-12-18T05:09:45;5.93;;;5.53;;
6834;SDS011;3455;42.150;24.734;2022-12-18T05:12:11;6.03;;;5.63;;
6834;SDS011;3455;42.150;24.734;2022-12-18T05:14:38;5.93;;;5.47;;
6834;SDS011;3455;42.150;24.734;2022-12-18T05:17:05;6.33;;;5.77;;
6834;SDS011;3455;42.150;24.734;2022-12-18T05:19:32;5.13;;;4.73;;
6834;SDS011;3455;42.150;24.734;2022-12-18T05:21:58;6.33;;;5.50;;
6834;SDS011;3455;42.150;24.734;2022-12-18T05:24:27;5.80;;;5.37;;
6834;SDS011;3455;42.150;24.734;2022-12-18T05:26:54;5.43;;;5.03;;
6834;SDS011;3455;42.150;24.734;2022-12-18T05:29:21;6.13;;;5.73;;
6834;SDS011;3455;42.150;24.734;2022-12-18T05:31:48;8.03;;;5.40;;
6834;SDS011;3455;42.150;24.734;2022-12-18T05:34:14;6.13;;;5.73;;
6834;SDS011;3455;42.150;24.734;2022-12-18T05:36:41;6.73;;;6.13;;
6834;SDS011;3455;42.150;24.734;2022-12-18T05:39:08;10.23;;;6.67;;
6834;SDS011;3455;42.150;24.734;2022-12-18T05:41:36;6.00;;;5.60;;
6834;SDS011;3455;42.150;24.734;2022-12-18T05:44:03;6.53;;;6.00;;
6834;SDS011;3455;42.150;24.734;2022-12-18T05:46:30;7.20;;;6.73;;
6834;SDS011;3455;42.150;24.734;2022-12-18T05:48:58;7.17;;;6.60;;
6834;SDS011;3455;42.150;24.734;2022-12-18T05:51:25;6.43;;;5.83;;
6834;SDS011;3455;42.150;24.734;2022-12-18T05:53:52;6.50;;;5.90;;
6834;SDS011;3455;42.150;24.734;2022-12-18T05:56:21;7.50;;;6.80;;
6834;SDS011;3455;42.150;24.734;2022-12-18T05:58:52;7.00;;;6.23;;
6834;SDS011;3455;42.150;24.734;2022-12-18T06:01:20;6.67;;;6.07;;
6834;SDS011;3455;42.150;24.734;2022-12-18T06:03:49;6.03;;;5.63;;
6834;SDS011;3455;42.150;24.734;2022-12-18T06:06:17;8.47;;;6.13;;
6834;SDS011;3455;42.150;24.734;2022-12-18T06:08:47;6.10;;;5.53;;
6834;SDS011;3455;42.150;24.734;2022-12-18T06:11:16;6.47;;;5.97;;
6834;SDS011;3455;42.150;24.734;2022-12-18T06:13:44;6.50;;;6.03;;
6834;SDS011;3455;42.150;24.734;2022-12-18T06:16:13;6.50;;;6.10;;
6834;SDS011;3455;42.150;24.734;2022-12-18T06:18:39;6.90;;;6.30;;
6834;SDS011;3455;42.150;24.734;2022-12-18T06:21:06;7.43;;;6.23;;
6834;SDS011;3455;42.150;24.734;2022-12-18T06:23:33;7.03;;;6.30;;
6834;SDS011;3455;42.150;24.734;2022-12-18T06:26:03;6.50;;;6.00;;
6834;SDS011;3455;42.150;24.734;2022-12-18T06:28:30;6.27;;;5.87;;
6834;SDS011;3455;42.150;24.734;2022-12-18T06:30:57;5.47;;;5.07;;
6834;SDS011;3455;42.150;24.734;2022-12-18T06:33:26;5.93;;;5.53;;
6834;SDS011;3455;42.150;24.734;2022-12-18T06:35:54;6.00;;;5.60;;
6834;SDS011;3455;42.150;24.734;2022-12-18T06:38:25;5.97;;;5.47;;
6834;SDS011;3455;42.150;24.734;2022-12-18T06:40:52;6.33;;;5.63;;
6834;SDS011;3455;42.150;24.734;2022-12-18T06:43:18;5.40;;;5.10;;
6834;SDS011;3455;42.150;24.734;2022-12-18T06:45:45;6.07;;;4.90;;
6834;SDS011;3455;42.150;24.734;2022-12-18T06:48:14;5.73;;;5.30;;
6834;SDS011;3455;42.150;24.734;2022-12-18T06:50:43;4.97;;;4.47;;
6834;SDS011;3455;42.150;24.734;2022-12-18T06:53:09;4.80;;;4.40;;
6834;SDS011;3455;42.150;24.734;2022-12-18T06:55:36;6.83;;;5.20;;
6834;SDS011;3455;42.150;24.734;2022-12-18T06:58:03;5.30;;;4.90;;
6834;SDS011;3455;42.150;24.734;2022-12-18T07:00:30;5.50;;;5.20;;
6834;SDS011;3455;42.150;24.734;2022-12-18T07:02:57;6.17;;;5.77;;
6834;SDS011;3455;42.150;24.734;2022-12-18T07:05:23;5.80;;;5.40;;
6834;SDS011;3455;42.150;24.734;2022-12-18T07:07:51;7.10;;;6.40;;
6834;SDS011;3455;42.150;24.734;2022-12-18T07:10:18;6.07;;;5.70;;
6834;SDS011;3455;42.150;24.734;2022-12-18T07:12:46;5.43;;;5.03;;
6834;SDS011;3455;42.150;24.734;2022-12-18T07:15:13;6.20;;;5.70;;
6834;SDS011;3455;42.150;24.734;2022-12-18T07:17:39;6.53;;;5.87;;
6834;SDS011;3455;42.150;24.734;2022-12-18T07:20:06;5.60;;;5.20;;
6834;SDS011;3455;42.150;24.734;2022-12-18T07:22:34;6.40;;;5.80;;
6834;SDS011;3455;42.150;24.734;2022-12-18T07:25:02;9.43;;;5.63;;
6834;SDS011;3455;42.150;24.734;2022-12-18T07:27:30;7.67;;;6.93;;
6834;SDS011;3455;42.150;24.734;2022-12-18T07:29:56;6.83;;;6.17;;
6834;SDS011;3455;42.150;24.734;2022-12-18T07:32:23;6.27;;;5.70;;
6834;SDS011;3455;42.150;24.734;2022-12-18T07:34:50;6.37;;;5.80;;
6834;SDS011;3455;42.150;24.734;2022-12-18T07:37:16;6.50;;;6.07;;
6834;SDS011;3455;42.150;24.734;2022-12-18T07:39:43;5.37;;;4.63;;
6834;SDS011;3455;42.150;24.734;2022-12-18T07:42:11;5.90;;;5.50;;
6834;SDS011;3455;42.150;24.734;2022-12-18T07:44:56;6.80;;;5.33;;
6834;SDS011;3455;42.150;24.734;2022-12-18T07:47:23;8.55;;;7.85;;
6834;SDS011;3455;42.150;24.734;2022-12-18T07:49:50;6.10;;;5.57;;
6834;SDS011;3455;42.150;24.734;2022-12-18T07:52:17;6.47;;;5.97;;
6834;SDS011;3455;42.150;24.734;2022-12-18T07:54:43;6.27;;;5.80;;
6834;SDS011;3455;42.150;24.734;2022-12-18T07:57:16;5.43;;;5.03;;
6834;SDS011;3455;42.150;24.734;2022-12-18T07:59:43;8.97;;;8.20;;
6834;SDS011;3455;42.150;24.734;2022-12-18T08:02:10;7.10;;;6.60;;
6834;SDS011;3455;42.150;24.734;2022-12-18T08:04:37;6.53;;;6.07;;
6834;SDS011;3455;42.150;24.734;2022-12-18T08:07:03;6.37;;;5.80;;
6834;SDS011;3455;42.150;24.734;2022-12-18T08:09:30;7.00;;;6.27;;
6834;SDS011;3455;42.150;24.734;2022-12-18T08:11:57;7.87;;;6.17;;
6834;SDS011;3455;42.150;24.734;2022-12-18T08:14:25;7.10;;;5.80;;
6834;SDS011;3455;42.150;24.734;2022-12-18T08:16:52;6.87;;;6.30;;
6834;SDS011;3455;42.150;24.734;2022-12-18T08:19:19;6.63;;;6.13;;
6834;SDS011;3455;42.150;24.734;2022-12-18T08:21:46;5.80;;;5.40;;
6834;SDS011;3455;42.150;24.734;2022-12-18T08:24:12;6.90;;;6.20;;
6834;SDS011;3455;42.150;24.734;2022-12-18T08:26:39;7.63;;;7.03;;
6834;SDS011;3455;42.150;24.734;2022-12-18T08:29:06;8.60;;;7.23;;
6834;SDS011;3455;42.150;24.734;2022-12-18T08:31:34;7.03;;;6.40;;
6834;SDS011;3455;42.150;24.734;2022-12-18T08:34:00;7.23;;;6.50;;
6834;SDS011;3455;42.150;24.734;2022-12-18T08:36:27;9.87;;;6.43;;
6834;SDS011;3455;42.150;24.734;2022-12-18T08:38:54;7.43;;;6.30;;
6834;SDS011;3455;42.150;24.734;2022-12-18T08:41:22;11.37;;;8.23;;
6834;SDS011;3455;42.150;24.734;2022-12-18T08:43:49;7.80;;;6.53;;
6834;SDS011;3455;42.150;24.734;2022-12-18T08:46:35;6.50;;;6.10;;
6834;SDS011;3455;42.150;24.734;2022-12-18T08:49:04;6.77;;;5.90;;
6834;SDS011;3455;42.150;24.734;2022-12-18T08:51:32;7.10;;;6.40;;
6834;SDS011;3455;42.150;24.734;2022-12-18T08:53:59;7.53;;;6.67;;
6834;SDS011;3455;42.150;24.734;2022-12-18T08:56:26;8.30;;;7.03;;
6834;SDS011;3455;42.150;24.734;2022-12-18T08:58:55;7.00;;;6.30;;
6834;SDS011;3455;42.150;24.734;2022-12-18T09:01:23;7.33;;;6.57;;
6834;SDS011;3455;42.150;24.734;2022-12-18T09:03:51;6.83;;;6.00;;
6834;SDS011;3455;42.150;24.734;2022-12-18T09:06:19;9.90;;;6.70;;
6834;SDS011;3455;42.150;24.734;2022-12-18T09:08:47;7.13;;;6.43;;
6834;SDS011;3455;42.150;24.734;2022-12-18T09:11:15;7.17;;;6.13;;
6834;SDS011;3455;42.150;24.734;2022-12-18T09:13:46;7.60;;;5.90;;
6834;SDS011;3455;42.150;24.734;2022-12-18T09:16:14;6.83;;;6.10;;
6834;SDS011;3455;42.150;24.734;2022-12-18T09:18:40;12.10;;;5.87;;
6834;SDS011;3455;42.150;24.734;2022-12-18T09:21:10;7.13;;;6.53;;
6834;SDS011;3455;42.150;24.734;2022-12-18T09:23:38;8.10;;;6.57;;
6834;SDS011;3455;42.150;24.734;2022-12-18T09:26:04;7.80;;;7.00;;
6834;SDS011;3455;42.150;24.734;2022-12-18T09:28:31;6.77;;;6.17;;
6834;SDS011;3455;42.150;24.734;2022-12-18T09:30:58;6.77;;;6.27;;
6834;SDS011;3455;42.150;24.734;2022-12-18T09:33:29;9.43;;;6.53;;
6834;SDS011;3455;42.150;24.734;2022-12-18T09:35:56;7.43;;;6.73;;
6834;SDS011;3455;42.150;24.734;2022-12-18T09:38:24;7.03;;;6.37;;
6834;SDS011;3455;42.150;24.734;2022-12-18T09:40:52;9.67;;;6.70;;
6834;SDS011;3455;42.150;24.734;2022-12-18T09:43:24;10.27;;;7.17;;
6834;SDS011;3455;42.150;24.734;2022-12-18T09:45:55;6.90;;;6.30;;
6834;SDS011;3455;42.150;24.734;2022-12-18T09:48:28;8.30;;;7.40;;
6834;SDS011;3455;42.150;24.734;2022-12-18T09:50:58;7.23;;;6.73;;
6834;SDS011;3455;42.150;24.734;2022-12-18T09:53:32;7.17;;;6.47;;
6834;SDS011;3455;42.150;24.734;2022-12-18T09:56:04;6.90;;;6.50;;
6834;SDS011;3455;42.150;24.734;2022-12-18T09:58:34;6.83;;;6.23;;
6834;SDS011;3455;42.150;24.734;2022-12-18T10:01:09;8.27;;;7.43;;
6834;SDS011;3455;42.150;24.734;2022-12-18T10:03:36;7.37;;;6.77;;
6834;SDS011;3455;42.150;24.734;2022-12-18T10:06:05;7.47;;;6.67;;
6834;SDS011;3455;42.150;24.734;2022-12-18T10:08:42;7.97;;;6.27;;
6834;SDS011;3455;42.150;24.734;2022-12-18T10:11:28;8.53;;;6.67;;
6834;SDS011;3455;42.150;24.734;2022-12-18T10:14:02;10.07;;;6.70;;
6834;SDS011;3455;42.150;24.734;2022-12-18T10:16:39;9.90;;;7.00;;
6834;SDS011;3455;42.150;24.734;2022-12-18T10:19:17;9.10;;;8.20;;
6834;SDS011;3455;42.150;24.734;2022-12-18T10:21:55;8.33;;;7.67;;
6834;SDS011;3455;42.150;24.734;2022-12-18T10:24:31;11.67;;;7.80;;
6834;SDS011;3455;42.150;24.734;2022-12-18T10:27:08;7.33;;;6.73;;
6834;SDS011;3455;42.150;24.734;2022-12-18T10:29:40;7.77;;;6.90;;
6834;SDS011;3455;42.150;24.734;2022-12-18T10:32:08;9.73;;;7.37;;
6834;SDS011;3455;42.150;24.734;2022-12-18T10:34:44;7.70;;;6.90;;
6834;SDS011;3455;42.150;24.734;2022-12-18T10:37:12;11.20;;;7.33;;
6834;SDS011;3455;42.150;24.734;2022-12-18T10:39:44;8.27;;;7.30;;
6834;SDS011;3455;42.150;24.734;2022-12-18T10:42:17;11.63;;;7.80;;
6834;SDS011;3455;42.150;24.734;2022-12-18T10:44:45;12.30;;;7.03;;
6834;SDS011;3455;42.150;24.734;2022-12-18T10:47:26;10.80;;;8.50;;
6834;SDS011;3455;42.150;24.734;2022-12-18T10:49:53;11.23;;;8.37;;
6834;SDS011;3455;42.150;24.734;2022-12-18T10:52:21;7.80;;;6.50;;
6834;SDS011;3455;42.150;24.734;2022-12-18T10:54:53;8.93;;;6.50;;
6834;SDS011;3455;42.150;24.734;2022-12-18T10:57:29;6.83;;;6.23;;
6834;SDS011;3455;42.150;24.734;2022-12-18T10:59:59;8.00;;;5.93;;
6834;SDS011;3455;42.150;24.734;2022-12-18T11:02:45;7.17;;;6.47;;
6834;SDS011;3455;42.150;24.734;2022-12-18T11:05:22;6.63;;;6.03;;
6834;SDS011;3455;42.150;24.734;2022-12-18T11:07:51;7.70;;;7.17;;
6834;SDS011;3455;42.150;24.734;2022-12-18T11:10:21;6.97;;;6.30;;
6834;SDS011;3455;42.150;24.734;2022-12-18T11:12:49;7.97;;;7.10;;
6834;SDS011;3455;42.150;24.734;2022-12-18T11:15:16;7.53;;;6.93;;
6834;SDS011;3455;42.150;24.734;2022-12-18T11:17:48;8.50;;;7.03;;
6834;SDS011;3455;42.150;24.734;2022-12-18T11:20:21;8.00;;;7.30;;
6834;SDS011;3455;42.150;24.734;2022-12-18T11:22:57;8.40;;;7.77;;
6834;SDS011;3455;42.150;24.734;2022-12-18T11:25:27;8.93;;;8.23;;
6834;SDS011;3455;42.150;24.734;2022-12-18T11:27:56;10.67;;;8.10;;
6834;SDS011;3455;42.150;24.734;2022-12-18T11:30:26;8.87;;;7.97;;
6834;SDS011;3455;42.150;24.734;2022-12-18T11:33:02;10.13;;;8.03;;
6834;SDS011;3455;42.150;24.734;2022-12-18T11:35:39;9.43;;;8.63;;
6834;SDS011;3455;42.150;24.734;2022-12-18T11:38:14;8.93;;;7.23;;
6834;SDS011;3455;42.150;24.734;2022-12-18T11:40:50;9.57;;;8.70;;
6834;SDS011;3455;42.150;24.734;2022-12-18T11:43:22;9.40;;;8.47;;
6834;SDS011;3455;42.150;24.734;2022-12-18T11:45:54;12.87;;;9.73;;
6834;SDS011;3455;42.150;24.734;2022-12-18T11:48:25;11.00;;;9.90;;
6834;SDS011;3455;42.150;24.734;2022-12-18T11:50:56;11.17;;;9.43;;
6834;SDS011;3455;42.150;24.734;2022-12-18T11:53:25;10.30;;;9.30;;
6834;SDS011;3455;42.150;24.734;2022-12-18T11:56:00;15.43;;;10.30;;
6834;SDS011;3455;42.150;24.734;2022-12-18T11:58:38;11.03;;;9.97;;
6834;SDS011;3455;42.150;24.734;2022-12-18T12:01:15;12.50;;;11.30;;
6834;SDS011;3455;42.150;24.734;2022-12-18T12:03:57;10.07;;;9.10;;
6834;SDS011;3455;42.150;24.734;2022-12-18T12:06:40;10.50;;;9.50;;
6834;SDS011;3455;42.150;24.734;2022-12-18T12:09:17;8.20;;;7.50;;
6834;SDS011;3455;42.150;24.734;2022-12-18T12:11:58;10.23;;;9.23;;
6834;SDS011;3455;42.150;24.734;2022-12-18T12:14:39;8.77;;;7.87;;
6834;SDS011;3455;42.150;24.734;2022-12-18T12:17:18;9.60;;;8.70;;
6834;SDS011;3455;42.150;24.734;2022-12-18T12:19:56;7.43;;;6.93;;
6834;SDS011;3455;42.150;24.734;2022-12-18T12:22:30;8.30;;;7.60;;
6834;SDS011;3455;42.150;24.734;2022-12-18T12:25:08;8.40;;;7.73;;
6834;SDS011;3455;42.150;24.734;2022-12-18T12:27:49;8.53;;;7.70;;
6834;SDS011;3455;42.150;24.734;2022-12-18T12:30:27;8.00;;;7.27;;
6834;SDS011;3455;42.150;24.734;2022-12-18T12:33:06;10.77;;;8.70;;
6834;SDS011;3455;42.150;24.734;2022-12-18T12:35:50;9.57;;;8.70;;
6834;SDS011;3455;42.150;24.734;2022-12-18T12:38:33;9.67;;;8.27;;
6834;SDS011;3455;42.150;24.734;2022-12-18T12:41:08;97.77;;;53.37;;
6834;SDS011;3455;42.150;24.734;2022-12-18T12:44:01;9.90;;;8.93;;
6834;SDS011;3455;42.150;24.734;2022-12-18T12:46:32;9.63;;;8.70;;
6834;SDS011;3455;42.150;24.734;2022-12-18T12:49:03;7.90;;;7.20;;
6834;SDS011;3455;42.150;24.734;2022-12-18T12:51:38;9.20;;;8.40;;
6834;SDS011;3455;42.150;24.734;2022-12-18T12:54:11;11.37;;;9.23;;
6834;SDS011;3455;42.150;24.734;2022-12-18T12:56:43;9.30;;;8.30;;
6834;SDS011;3455;42.150;24.734;2022-12-18T12:59:18;10.87;;;9.33;;
6834;SDS011;3455;42.150;24.734;2022-12-18T13:01:52;10.07;;;9.07;;
6834;SDS011;3455;42.150;24.734;2022-12-18T13:04:26;9.50;;;8.63;;
6834;SDS011;3455;42.150;24.734;2022-12-18T13:07:00;8.67;;;7.97;;
6834;SDS011;3455;42.150;24.734;2022-12-18T13:09:32;9.57;;;8.60;;
6834;SDS011;3455;42.150;24.734;2022-12-18T13:12:01;11.37;;;8.77;;
6834;SDS011;3455;42.150;24.734;2022-12-18T13:14:48;9.67;;;8.70;;
6834;SDS011;3455;42.150;24.734;2022-12-18T13:17:29;10.50;;;9.10;;
6834;SDS011;3455;42.150;24.734;2022-12-18T13:20:04;9.73;;;8.67;;
6834;SDS011;3455;42.150;24.734;2022-12-18T13:22:35;10.07;;;9.17;;
6834;SDS011;3455;42.150;24.734;2022-12-18T13:27:59;10.10;;;8.50;;
6834;SDS011;3455;42.150;24.734;2022-12-18T13:30:48;12.60;;;9.80;;
6834;SDS011;3455;42.150;24.734;2022-12-18T13:36:23;10.10;;;8.97;;
6834;SDS011;3455;42.150;24.734;2022-12-18T13:41:49;8.73;;;7.90;;
6834;SDS011;3455;42.150;24.734;2022-12-18T13:44:30;10.37;;;9.30;;
6834;SDS011;3455;42.150;24.734;2022-12-18T13:47:00;10.07;;;9.03;;
6834;SDS011;3455;42.150;24.734;2022-12-18T13:49:31;9.73;;;8.77;;
6834;SDS011;3455;42.150;24.734;2022-12-18T13:52:13;10.50;;;9.17;;
6834;SDS011;3455;42.150;24.734;2022-12-18T13:54:43;10.10;;;9.10;;
6834;SDS011;3455;42.150;24.734;2022-12-18T13:57:24;13.10;;;10.27;;
6834;SDS011;3455;42.150;24.734;2022-12-18T13:59:53;10.47;;;9.50;;
6834;SDS011;3455;42.150;24.734;2022-12-18T14:02:22;9.83;;;8.83;;
6834;SDS011;3455;42.150;24.734;2022-12-18T14:04:50;13.50;;;9.27;;
6834;SDS011;3455;42.150;24.734;2022-12-18T14:07:18;10.73;;;9.33;;
6834;SDS011;3455;42.150;24.734;2022-12-18T14:09:49;11.10;;;9.93;;
6834;SDS011;3455;42.150;24.734;2022-12-18T14:12:18;12.80;;;9.47;;
6834;SDS011;3455;42.150;24.734;2022-12-18T14:15:06;10.80;;;9.73;;
6834;SDS011;3455;42.150;24.734;2022-12-18T14:17:47;11.37;;;10.37;;
6834;SDS011;3455;42.150;24.734;2022-12-18T14:20:14;9.53;;;8.53;;
6834;SDS011;3455;42.150;24.734;2022-12-18T14:22:42;9.77;;;8.77;;
6834;SDS011;3455;42.150;24.734;2022-12-18T14:25:15;9.83;;;9.03;;
6834;SDS011;3455;42.150;24.734;2022-12-18T14:27:47;10.53;;;9.63;;
6834;SDS011;3455;42.150;24.734;2022-12-18T14:30:29;16.30;;;12.10;;
6834;SDS011;3455;42.150;24.734;2022-12-18T14:33:05;14.17;;;10.90;;
6834;SDS011;3455;42.150;24.734;2022-12-18T14:35:36;10.93;;;9.83;;
6834;SDS011;3455;42.150;24.734;2022-12-18T14:38:18;10.47;;;9.47;;
6834;SDS011;3455;42.150;24.734;2022-12-18T14:40:51;10.67;;;9.53;;
6834;SDS011;3455;42.150;24.734;2022-12-18T14:43:19;11.93;;;10.73;;
6834;SDS011;3455;42.150;24.734;2022-12-18T14:45:46;10.97;;;9.87;;
6834;SDS011;3455;42.150;24.734;2022-12-18T14:48:16;10.67;;;9.67;;
6834;SDS011;3455;42.150;24.734;2022-12-18T14:50:45;11.37;;;10.17;;
6834;SDS011;3455;42.150;24.734;2022-12-18T14:53:23;15.03;;;10.83;;
6834;SDS011;3455;42.150;24.734;2022-12-18T14:55:55;12.07;;;10.03;;
6834;SDS011;3455;42.150;24.734;2022-12-18T14:58:22;15.03;;;10.93;;
6834;SDS011;3455;42.150;24.734;2022-12-18T15:00:49;15.50;;;10.50;;
6834;SDS011;3455;42.150;24.734;2022-12-18T15:03:18;13.50;;;11.10;;
6834;SDS011;3455;42.150;24.734;2022-12-18T15:05:47;13.93;;;12.03;;
6834;SDS011;3455;42.150;24.734;2022-12-18T15:08:24;14.77;;;12.10;;
6834;SDS011;3455;42.150;24.734;2022-12-18T15:10:55;12.90;;;11.63;;
6834;SDS011;3455;42.150;24.734;2022-12-18T15:13:23;14.03;;;11.43;;
6834;SDS011;3455;42.150;24.734;2022-12-18T15:15:51;13.17;;;10.87;;
6834;SDS011;3455;42.150;24.734;2022-12-18T15:18:20;13.30;;;11.40;;
6834;SDS011;3455;42.150;24.734;2022-12-18T15:20:52;14.77;;;11.23;;